Time;durP1;ratioP1;P1;durP2;ratioP2;P2;SDS_P1;SDS_P2;PMS_P1;PMS_P2;Temp;Humidity;BMP_temperature;BMP_pressure;BME280_temperature;BME280_humidity;BME280_pressure;Samples;Min_cycle;Max_cycle;Signal;HPM_P1;HPM_P2
2022/04/08 00:00:17;;;;;;;6.10;1.33;;;12.60;63.00;;;;;;5046768;28;20032;-82
2022/04/08 00:02:43;;;;;;;8.15;1.35;;;12.60;63.30;;;;;;5055413;28;20099;-83
2022/04/08 00:05:09;;;;;;;5.07;1.15;;;12.60;63.40;;;;;;5054312;28;20047;-82
2022/04/08 00:07:35;;;;;;;3.95;1.70;;;12.60;63.80;;;;;;5055470;28;20487;-83
2022/04/08 00:10:02;;;;;;;8.10;1.83;;;12.60;64.10;;;;;;5053284;28;20507;-82
2022/04/08 00:12:28;;;;;;;4.50;1.88;;;12.70;64.40;;;;;;5055059;28;20036;-82
2022/04/08 00:14:53;;;;;;;10.32;1.60;;;12.50;65.20;;;;;;5054104;28;20017;-83
2022/04/08 00:17:19;;;;;;;6.40;1.85;;;12.60;65.30;;;;;;5055117;28;20446;-83
2022/04/08 00:19:44;;;;;;;5.93;1.70;;;12.50;66.00;;;;;;5040062;28;20420;-82
2022/04/08 00:22:10;;;;;;;8.70;1.70;;;12.50;66.40;;;;;;5035386;28;20112;-83
2022/04/08 00:24:36;;;;;;;8.60;2.20;;;12.50;66.90;;;;;;5035337;28;20053;-82
2022/04/08 00:27:02;;;;;;;5.20;1.70;;;12.40;67.70;;;;;;5052217;28;20040;-83
2022/04/08 00:29:27;;;;;;;6.90;2.45;;;12.40;68.00;;;;;;5055067;28;20025;-83
2022/04/08 00:31:57;;;;;;;11.00;2.22;;;12.40;68.30;;;;;;5053710;28;20060;-82
2022/04/08 00:34:27;;;;;;;8.15;2.10;;;12.30;69.10;;;;;;5052032;28;20028;-82
2022/04/08 00:36:54;;;;;;;12.80;2.50;;;12.40;69.50;;;;;;5033819;28;20072;-81
2022/04/08 00:39:21;;;;;;;10.40;2.17;;;12.30;70.50;;;;;;5035369;28;20028;-83
2022/04/08 00:41:47;;;;;;;11.88;2.35;;;12.30;70.80;;;;;;5035077;28;20025;-83
2022/04/08 00:44:13;;;;;;;5.93;1.95;;;12.30;70.70;;;;;;5033503;28;20059;-82
2022/04/08 00:46:38;;;;;;;13.65;3.13;;;12.30;71.40;;;;;;5035244;28;20426;-82
2022/04/08 00:49:05;;;;;;;7.45;1.92;;;12.30;72.00;;;;;;5051172;28;20039;-82
2022/04/08 00:51:35;;;;;;;16.08;2.92;;;12.20;72.80;;;;;;5033722;28;20076;-83
2022/04/08 00:54:02;;;;;;;10.05;2.25;;;12.20;72.80;;;;;;5035075;28;20017;-83
2022/04/08 00:56:31;;;;;;;13.40;2.50;;;12.10;73.70;;;;;;5034922;28;20036;-84
2022/04/08 00:58:57;;;;;;;10.70;2.40;;;12.00;74.50;;;;;;5033240;28;20034;-84
2022/04/08 01:01:24;;;;;;;10.68;2.00;;;11.90;75.00;;;;;;5034950;28;20053;-84
2022/04/08 01:03:53;;;;;;;9.70;2.80;;;12.00;74.80;;;;;;5054424;28;20021;-84
2022/04/08 01:06:20;;;;;;;9.05;2.60;;;11.90;75.60;;;;;;5054793;28;20104;-84
2022/04/08 01:08:49;;;;;;;17.27;3.97;;;11.80;76.20;;;;;;5046631;28;20026;-83
2022/04/08 01:11:18;;;;;;;9.15;2.60;;;11.80;76.10;;;;;;5038864;28;20030;-83
2022/04/08 01:13:44;;;;;;;14.32;2.30;;;11.80;76.50;;;;;;5038788;28;20569;-84
2022/04/08 01:16:10;;;;;;;11.90;2.45;;;11.80;76.70;;;;;;5038796;28;20026;-84
2022/04/08 01:18:36;;;;;;;9.48;2.35;;;11.60;77.40;;;;;;5038816;28;20451;-84
2022/04/08 01:21:04;;;;;;;11.73;2.08;;;11.70;77.50;;;;;;5038746;28;20523;-83
2022/04/08 01:23:32;;;;;;;15.23;2.95;;;11.70;77.40;;;;;;5037404;28;20036;-83
2022/04/08 01:25:58;;;;;;;12.63;2.42;;;11.70;77.80;;;;;;5054849;28;20029;-83
2022/04/08 01:28:25;;;;;;;8.50;2.30;;;11.70;78.10;;;;;;5058617;28;20108;-83
2022/04/08 01:30:51;;;;;;;12.13;2.35;;;11.70;78.30;;;;;;5043970;28;20488;-84
2022/04/08 01:33:17;;;;;;;10.88;3.05;;;11.70;77.90;;;;;;5038492;28;20459;-84
2022/04/08 01:35:42;;;;;;;14.13;2.67;;;11.70;78.00;;;;;;5038610;28;20380;-83
2022/04/08 01:38:09;;;;;;;13.55;3.30;;;11.80;77.80;;;;;;5038652;28;20017;-84
2022/04/08 01:40:35;;;;;;;3.83;1.63;;;11.80;77.60;;;;;;5038588;28;20032;-84
2022/04/08 01:43:00;;;;;;;13.80;3.13;;;11.80;77.30;;;;;;5038399;28;20061;-84
2022/04/08 01:45:26;;;;;;;10.82;2.15;;;11.70;77.70;;;;;;5038199;28;20030;-84
2022/04/08 01:47:52;;;;;;;6.97;1.90;;;11.80;77.50;;;;;;5048550;28;20047;-84
2022/04/08 01:50:20;;;;;;;9.73;2.47;;;11.80;77.50;;;;;;5047352;28;20033;-84
2022/04/08 01:52:46;;;;;;;14.80;2.40;;;11.80;77.40;;;;;;5038309;28;20037;-84
2022/04/08 01:55:12;;;;;;;7.53;2.42;;;11.80;77.00;;;;;;5036993;28;20057;-85
2022/04/08 01:57:38;;;;;;;8.77;2.30;;;11.90;76.90;;;;;;5038376;28;20083;-85
2022/04/08 02:00:05;;;;;;;11.45;2.22;;;11.80;76.80;;;;;;5047680;28;20438;-85
2022/04/08 02:02:30;;;;;;;10.70;2.30;;;11.90;76.40;;;;;;5049867;28;20037;-84
2022/04/08 02:04:56;;;;;;;15.15;2.60;;;11.90;76.70;;;;;;5038103;28;20034;-83
2022/04/08 02:07:22;;;;;;;12.68;3.30;;;11.90;76.80;;;;;;5038264;28;20083;-84
2022/04/08 02:09:48;;;;;;;10.23;2.42;;;11.80;77.30;;;;;;5037948;28;20026;-83
2022/04/08 02:12:13;;;;;;;12.77;2.47;;;11.80;77.70;;;;;;5036343;28;20507;-84
2022/04/08 02:14:39;;;;;;;14.32;2.58;;;11.70;77.80;;;;;;5046373;28;20025;-84
2022/04/08 02:17:05;;;;;;;9.30;2.47;;;11.70;77.90;;;;;;5056469;28;20032;-84
2022/04/08 02:19:30;;;;;;;9.73;2.33;;;11.70;78.10;;;;;;5054146;28;20025;-84
2022/04/08 02:21:57;;;;;;;8.02;2.75;;;11.70;78.40;;;;;;5037682;28;20030;-83
2022/04/08 02:24:25;;;;;;;10.38;2.45;;;11.70;78.30;;;;;;5036342;28;20472;-84
2022/04/08 02:26:50;;;;;;;6.32;1.83;;;11.70;78.30;;;;;;5037645;28;20021;-84
2022/04/08 02:29:16;;;;;;;12.13;2.55;;;11.70;78.40;;;;;;5036289;28;20041;-84
2022/04/08 02:31:42;;;;;;;11.20;2.63;;;11.70;78.20;;;;;;5037510;28;20084;-85
2022/04/08 02:34:07;;;;;;;9.63;2.25;;;11.70;78.50;;;;;;5037764;28;20456;-84
2022/04/08 02:36:33;;;;;;;10.52;2.17;;;11.70;78.20;;;;;;5037145;28;20527;-84
2022/04/08 02:38:59;;;;;;;11.38;2.38;;;11.70;78.00;;;;;;5045151;28;20029;-84
2022/04/08 02:41:25;;;;;;;9.88;2.55;;;11.80;78.10;;;;;;5057327;28;20032;-84
2022/04/08 02:43:51;;;;;;;10.90;2.95;;;11.60;78.90;;;;;;5057356;28;20033;-84
2022/04/08 02:46:16;;;;;;;7.60;1.73;;;11.60;79.30;;;;;;5057085;28;20061;-84
2022/04/08 02:48:42;;;;;;;8.65;2.45;;;11.60;79.40;;;;;;5044667;28;20025;-83
2022/04/08 02:51:08;;;;;;;9.55;2.45;;;11.50;79.30;;;;;;5035724;28;20140;-84
2022/04/08 02:53:33;;;;;;;7.78;2.60;;;11.50;79.50;;;;;;5046777;28;20028;-84
2022/04/08 02:55:59;;;;;;;11.75;2.90;;;11.40;79.70;;;;;;5036958;28;20455;-84
2022/04/08 02:58:27;;;;;;;13.07;2.45;;;11.30;80.20;;;;;;5035985;28;20029;-84
2022/04/08 03:00:52;;;;;;;7.57;2.17;;;11.30;80.20;;;;;;5041995;28;20029;-84
2022/04/08 03:03:18;;;;;;;8.05;2.35;;;11.40;80.00;;;;;;5037014;28;20059;-84
2022/04/08 03:05:44;;;;;;;6.47;2.15;;;11.30;80.40;;;;;;5035988;28;20026;-84
2022/04/08 03:08:10;;;;;;;11.45;2.67;;;11.20;80.80;;;;;;5037021;28;20414;-85
2022/04/08 03:10:35;;;;;;;10.70;2.97;;;11.20;81.10;;;;;;5053032;28;20063;-85
2022/04/08 03:13:01;;;;;;;12.80;2.85;;;11.20;81.30;;;;;;5057024;28;20414;-86
2022/04/08 03:15:27;;;;;;;7.32;2.35;;;11.10;81.40;;;;;;5056785;28;20040;-86
2022/04/08 03:17:52;;;;;;;9.63;2.40;;;11.20;81.70;;;;;;5047525;28;20028;-85
2022/04/08 03:20:18;;;;;;;10.95;2.72;;;11.20;81.90;;;;;;5036855;28;20026;-86
2022/04/08 03:22:44;;;;;;;13.32;2.88;;;11.00;82.00;;;;;;5036760;28;20068;-86
2022/04/08 03:25:10;;;;;;;6.30;2.50;;;11.10;82.00;;;;;;5036493;28;20448;-85
2022/04/08 03:27:35;;;;;;;8.07;1.98;;;11.10;81.70;;;;;;5036548;28;20108;-85
2022/04/08 03:30:01;;;;;;;2.80;2.05;;;11.10;82.20;;;;;;5036886;28;20052;-86
2022/04/08 03:32:27;;;;;;;7.63;1.65;;;11.00;82.40;;;;;;5053392;28;20055;-85
2022/04/08 03:34:57;;;;;;;8.55;2.40;;;11.00;82.60;;;;;;5055533;28;20036;-85
2022/04/08 03:37:26;;;;;;;8.60;2.60;;;10.90;83.20;;;;;;5054919;28;20017;-86
2022/04/08 03:39:53;;;;;;;8.15;1.88;;;10.90;83.90;;;;;;5036876;28;20055;-86
2022/04/08 03:42:19;;;;;;;10.65;3.33;;;10.80;83.40;;;;;;5036756;28;20021;-87
2022/04/08 03:44:45;;;;;;;4.68;1.98;;;10.80;83.80;;;;;;5035031;28;20087;-87
2022/04/08 03:47:10;;;;;;;5.20;1.88;;;10.70;83.70;;;;;;5036633;28;20033;-86
2022/04/08 03:49:36;;;;;;;8.98;1.80;;;10.70;84.50;;;;;;5036733;28;20036;-87
2022/04/08 03:52:05;;;;;;;5.15;1.60;;;10.60;84.50;;;;;;5036534;28;20053;-86
2022/04/08 03:54:31;;;;;;;3.58;0.82;;;10.50;85.30;;;;;;5036895;28;20087;-87
2022/04/08 03:56:57;;;;;;;9.63;2.08;;;10.40;85.90;;;;;;5035189;28;20119;-87
2022/04/08 03:59:24;;;;;;;8.30;1.70;;;10.30;87.40;;;;;;5041355;28;20025;-87
2022/04/08 04:01:50;;;;;;;8.15;1.70;;;10.30;87.10;;;;;;5053888;28;20044;-87
2022/04/08 04:04:16;;;;;;;5.25;1.40;;;10.20;87.50;;;;;;5036952;28;20025;-87
2022/04/08 04:06:41;;;;;;;4.88;1.92;;;10.20;88.20;;;;;;5035615;28;20022;-87
2022/04/08 04:09:07;;;;;;;4.78;2.17;;;10.20;89.00;;;;;;5035468;28;20423;-89
2022/04/08 04:11:33;;;;;;;4.85;1.95;;;10.20;89.70;;;;;;5036678;28;20151;-86
2022/04/08 04:13:59;;;;;;;1.73;1.33;;;10.10;89.50;;;;;;5040051;28;20403;-88
2022/04/08 04:16:26;;;;;;;7.55;1.98;;;10.00;90.00;;;;;;5055973;28;20021;-88
2022/04/08 04:18:52;;;;;;;3.05;1.48;;;10.00;89.90;;;;;;5047140;28;20017;-89
2022/04/08 04:21:18;;;;;;;3.47;1.63;;;9.80;89.80;;;;;;5037005;28;20022;-89
2022/04/08 04:23:43;;;;;;;4.28;1.50;;;9.80;91.00;;;;;;5036666;28;20048;-88
2022/04/08 04:26:09;;;;;;;5.50;1.83;;;9.80;90.80;;;;;;5035236;28;20559;-87
2022/04/08 04:28:35;;;;;;;5.63;1.65;;;9.90;91.60;;;;;;5034632;28;20025;-87
2022/04/08 04:31:03;;;;;;;5.82;1.80;;;9.90;91.40;;;;;;5035986;28;20025;-87
2022/04/08 04:33:29;;;;;;;3.95;1.50;;;10.00;91.80;;;;;;5035944;28;20040;-88
2022/04/08 04:35:55;;;;;;;4.05;1.58;;;10.10;91.30;;;;;;5034386;28;20044;-87
2022/04/08 04:38:22;;;;;;;1.67;1.23;;;10.10;90.90;;;;;;5034309;28;20025;-87
2022/04/08 04:40:48;;;;;;;2.60;1.67;;;10.10;91.10;;;;;;5034153;28;20025;-86
2022/04/08 04:43:14;;;;;;;2.60;1.60;;;10.00;91.20;;;;;;5049719;28;20561;-88
2022/04/08 04:45:40;;;;;;;2.45;1.33;;;10.00;91.90;;;;;;5054960;28;20075;-82
2022/04/08 04:48:06;;;;;;;4.70;2.30;;;10.10;91.90;;;;;;5049694;28;20033;-82
2022/04/08 05:00:11;;;;;;;2.17;1.40;;;9.50;93.40;;;;;;5111760;27;20372;-79
2022/04/08 05:02:37;;;;;;;1.58;1.17;;;9.50;93.70;;;;;;5093914;28;20028;-79
2022/04/08 05:05:03;;;;;;;2.25;1.35;;;9.60;93.40;;;;;;5112524;28;20062;-83
2022/04/08 05:07:29;;;;;;;2.00;1.30;;;9.70;92.80;;;;;;5112749;28;20073;-77
2022/04/08 05:09:54;;;;;;;1.92;1.33;;;9.80;92.90;;;;;;5093820;28;20020;-78
2022/04/08 05:12:20;;;;;;;3.70;1.63;;;10.00;92.70;;;;;;5101870;28;20024;-78
2022/04/08 05:14:46;;;;;;;3.92;1.30;;;10.00;92.30;;;;;;5093803;28;20024;-77
2022/04/08 05:17:11;;;;;;;2.25;1.40;;;10.10;92.00;;;;;;5111037;28;20028;-80
2022/04/08 05:19:37;;;;;;;4.05;1.75;;;10.20;92.50;;;;;;5110326;28;20035;-77
2022/04/08 05:22:03;;;;;;;3.80;1.77;;;10.30;92.30;;;;;;5110831;28;20110;-75
2022/04/08 05:24:28;;;;;;;2.60;1.50;;;10.40;92.20;;;;;;5111173;28;20051;-76
2022/04/08 05:26:54;;;;;;;3.60;2.10;;;10.50;92.20;;;;;;5111753;28;20016;-82
2022/04/08 05:29:20;;;;;;;3.03;1.50;;;10.50;91.80;;;;;;5101995;28;20067;-81
2022/04/08 05:31:47;;;;;;;1.95;1.20;;;10.60;91.90;;;;;;5126908;27;20027;-82
2022/04/08 05:34:13;;;;;;;3.58;1.90;;;10.60;91.40;;;;;;5098801;28;20302;-82
2022/04/08 05:36:38;;;;;;;2.13;1.30;;;10.70;91.20;;;;;;5095001;28;20050;-82
2022/04/08 05:39:04;;;;;;;3.15;1.55;;;10.70;91.30;;;;;;5111644;28;20085;-82
2022/04/08 05:41:30;;;;;;;1.65;1.20;;;10.80;90.80;;;;;;5105129;28;20025;-81
2022/04/08 05:43:56;;;;;;;2.17;1.30;;;10.90;90.60;;;;;;5091825;28;20060;-82
2022/04/08 05:46:21;;;;;;;2.97;1.17;;;11.00;90.60;;;;;;5093593;28;20141;-82
2022/04/08 05:48:47;;;;;;;3.67;1.70;;;11.00;90.10;;;;;;5125709;28;20172;-82
2022/04/08 05:51:12;;;;;;;5.40;1.50;;;11.00;90.60;;;;;;5112260;28;20024;-82
2022/04/08 05:53:38;;;;;;;3.30;1.17;;;11.10;90.60;;;;;;5111714;28;20028;-81
2022/04/08 05:56:04;;;;;;;3.80;1.25;;;11.20;90.90;;;;;;5106024;28;20024;-76
2022/04/08 05:58:31;;;;;;;5.38;1.50;;;11.30;91.00;;;;;;5122828;28;20044;-80
2022/04/08 06:00:56;;;;;;;5.85;1.30;;;11.40;90.80;;;;;;5100041;28;20452;-80
2022/04/08 06:03:22;;;;;;;4.75;1.60;;;11.60;90.90;;;;;;5109336;28;20032;-80
2022/04/08 06:05:47;;;;;;;10.30;2.28;;;11.70;91.10;;;;;;5109240;28;20024;-81
2022/04/08 06:08:13;;;;;;;2.90;1.15;;;11.90;91.30;;;;;;5110195;28;20047;-82
2022/04/08 06:10:39;;;;;;;6.70;1.80;;;12.00;91.30;;;;;;5094980;28;20024;-82
2022/04/08 06:13:05;;;;;;;9.45;2.03;;;12.10;91.00;;;;;;5077638;28;20041;-82
2022/04/08 06:15:31;;;;;;;2.05;0.98;;;12.30;90.90;;;;;;5079725;28;20417;-81
2022/04/08 06:17:57;;;;;;;7.38;1.63;;;12.30;90.80;;;;;;5096477;28;20410;-81
2022/04/08 06:20:24;;;;;;;4.78;1.33;;;12.40;90.80;;;;;;5096787;28;20027;-81
2022/04/08 06:22:51;;;;;;;10.13;1.35;;;12.50;91.10;;;;;;5077414;28;20029;-81
2022/04/08 06:25:22;;;;;;;6.63;2.20;;;12.50;91.20;;;;;;5077075;28;20028;-81
2022/04/08 06:27:56;;;;;;;2.10;0.90;;;12.60;91.10;;;;;;5076867;28;20024;-80
2022/04/08 06:30:22;;;;;;;8.55;1.70;;;12.70;90.90;;;;;;5076485;28;20470;-80
2022/04/08 06:32:48;;;;;;;7.25;1.63;;;12.70;90.80;;;;;;5076849;28;20041;-81
2022/04/08 06:35:14;;;;;;;3.45;1.27;;;12.70;90.60;;;;;;5076943;28;20035;-80
2022/04/08 06:37:40;;;;;;;3.80;1.33;;;12.80;90.50;;;;;;5077130;28;20025;-80
2022/04/08 06:40:08;;;;;;;2.63;1.15;;;12.80;90.70;;;;;;5076768;28;20021;-80
2022/04/08 06:42:35;;;;;;;5.90;1.15;;;12.80;90.60;;;;;;5077394;28;20028;-80
2022/04/08 06:45:01;;;;;;;5.40;1.35;;;12.80;91.00;;;;;;5076533;28;20040;-80
2022/04/08 06:47:27;;;;;;;3.28;0.93;;;12.70;91.10;;;;;;5083802;28;20024;-80
2022/04/08 06:49:53;;;;;;;3.90;1.08;;;12.80;91.10;;;;;;5096054;28;20024;-81
2022/04/08 06:52:18;;;;;;;3.45;1.20;;;12.80;91.20;;;;;;5097026;28;20470;-81
2022/04/08 06:54:44;;;;;;;4.18;1.25;;;12.80;90.90;;;;;;5081026;28;20044;-80
2022/04/08 06:57:09;;;;;;;3.00;1.10;;;12.80;90.70;;;;;;5075604;28;20041;-80
2022/04/08 06:59:35;;;;;;;5.63;1.85;;;12.90;90.50;;;;;;5083393;28;20028;-80
2022/04/08 07:02:02;;;;;;;2.88;0.80;;;12.80;90.10;;;;;;5076647;28;20040;-80
2022/04/08 07:04:28;;;;;;;3.00;1.02;;;12.80;89.80;;;;;;5076375;28;20024;-79
2022/04/08 07:06:54;;;;;;;2.85;0.88;;;12.80;89.50;;;;;;5076777;28;20063;-81
2022/04/08 07:09:19;;;;;;;5.38;1.13;;;12.80;89.40;;;;;;5075295;28;20032;-80
2022/04/08 07:11:47;;;;;;;3.22;0.88;;;12.80;89.50;;;;;;5087238;28;20464;-80
2022/04/08 07:14:13;;;;;;;2.05;1.00;;;12.80;89.10;;;;;;5082062;28;20036;-80
2022/04/08 07:16:41;;;;;;;3.25;0.85;;;12.80;89.30;;;;;;5075470;28;20064;-80
2022/04/08 07:19:07;;;;;;;5.20;1.00;;;12.80;89.40;;;;;;5074844;28;20491;-80
2022/04/08 07:21:32;;;;;;;3.47;1.20;;;12.80;89.60;;;;;;5090736;28;20505;-80
2022/04/08 07:23:59;;;;;;;2.45;0.63;;;12.80;90.00;;;;;;5076388;28;20096;-80
2022/04/08 07:26:25;;;;;;;4.22;1.10;;;12.80;90.00;;;;;;5076175;28;20066;-80
2022/04/08 07:28:50;;;;;;;1.23;0.70;;;12.80;90.50;;;;;;5076348;28;20025;-80
2022/04/08 07:31:16;;;;;;;3.50;0.90;;;12.80;90.70;;;;;;5074535;28;20055;-80
2022/04/08 07:33:42;;;;;;;1.10;0.60;;;12.80;90.10;;;;;;5074883;28;20391;-80
2022/04/08 07:36:07;;;;;;;2.20;0.80;;;12.80;90.20;;;;;;5075952;28;20550;-80
2022/04/08 07:38:33;;;;;;;3.47;0.70;;;12.80;90.10;;;;;;5074511;28;20035;-82
2022/04/08 07:40:59;;;;;;;2.42;0.63;;;12.90;89.90;;;;;;5075614;28;20039;-81
2022/04/08 07:43:25;;;;;;;2.20;0.70;;;12.90;89.30;;;;;;5075718;28;20025;-80
2022/04/08 07:45:51;;;;;;;1.55;0.47;;;12.80;89.00;;;;;;5075665;28;20832;-80
2022/04/08 07:48:16;;;;;;;2.53;0.90;;;12.80;88.90;;;;;;5090054;28;20082;-80
2022/04/08 07:50:42;;;;;;;0.80;0.47;;;12.80;89.20;;;;;;5095734;28;20028;-80
2022/04/08 07:53:08;;;;;;;1.20;0.50;;;12.80;89.20;;;;;;5090172;28;20027;-80
2022/04/08 07:55:34;;;;;;;1.42;0.77;;;12.70;89.30;;;;;;5074992;28;20560;-80
2022/04/08 07:58:00;;;;;;;2.17;0.70;;;12.70;89.90;;;;;;5074322;28;20486;-80
2022/04/08 08:00:27;;;;;;;2.10;1.20;;;12.80;89.90;;;;;;5089109;28;20044;-80
2022/04/08 08:02:53;;;;;;;4.28;0.80;;;12.80;89.60;;;;;;5095691;28;20020;-80
2022/04/08 08:05:20;;;;;;;0.90;0.60;;;12.80;89.30;;;;;;5090045;28;20039;-79
2022/04/08 08:07:52;;;;;;;4.30;0.90;;;12.80;89.50;;;;;;5075724;28;20107;-81
2022/04/08 08:10:20;;;;;;;3.47;1.30;;;12.90;89.30;;;;;;5075011;28;20029;-80
2022/04/08 08:12:47;;;;;;;2.63;1.27;;;13.00;89.30;;;;;;5092917;28;20020;-81
2022/04/08 08:15:13;;;;;;;3.72;1.15;;;13.00;89.20;;;;;;5090552;28;20021;-81
2022/04/08 08:17:39;;;;;;;4.60;1.35;;;13.00;89.10;;;;;;5075427;28;20013;-81
2022/04/08 08:20:06;;;;;;;6.43;1.42;;;13.10;89.10;;;;;;5090672;28;20032;-81
2022/04/08 08:22:33;;;;;;;3.67;1.95;;;13.10;89.10;;;;;;5075277;28;20060;-81
2022/04/08 08:24:59;;;;;;;6.15;2.13;;;13.20;89.20;;;;;;5075431;28;20111;-81
2022/04/08 08:27:25;;;;;;;3.33;1.30;;;13.20;89.00;;;;;;5075094;28;20048;-82
2022/04/08 08:29:50;;;;;;;1.88;0.95;;;13.20;89.30;;;;;;5075652;28;20024;-82
2022/04/08 08:32:16;;;;;;;4.35;1.17;;;13.20;88.90;;;;;;5074707;28;20846;-82
2022/04/08 08:34:42;;;;;;;3.67;1.30;;;13.30;88.60;;;;;;5073599;28;20081;-82
2022/04/08 08:37:08;;;;;;;2.85;1.00;;;13.20;88.40;;;;;;5073883;28;20028;-81
2022/04/08 08:39:34;;;;;;;3.53;1.30;;;13.30;88.80;;;;;;5086575;28;20027;-82
2022/04/08 08:42:00;;;;;;;2.88;1.40;;;13.30;88.40;;;;;;5074772;28;20032;-82
2022/04/08 08:44:26;;;;;;;3.85;1.25;;;13.30;88.80;;;;;;5075045;28;20028;-82
2022/04/08 08:46:55;;;;;;;5.45;1.15;;;13.40;88.40;;;;;;5076551;28;20031;-82
2022/04/08 08:49:23;;;;;;;4.20;1.02;;;13.40;88.20;;;;;;5093975;28;20050;-83
2022/04/08 08:51:58;;;;;;;5.35;0.90;;;13.60;88.40;;;;;;5095208;28;20050;-83
2022/04/08 08:54:24;;;;;;;8.65;1.20;;;13.70;87.80;;;;;;5089234;28;20071;-83
2022/04/08 08:56:50;;;;;;;6.85;1.00;;;14.00;88.00;;;;;;5075086;28;20028;-83
2022/04/08 08:59:16;;;;;;;5.30;1.00;;;14.30;87.30;;;;;;5078802;28;20109;-83
2022/04/08 09:01:41;;;;;;;5.32;1.17;;;14.50;86.00;;;;;;5094849;28;20386;-83
2022/04/08 09:04:07;;;;;;;11.35;1.23;;;15.10;84.30;;;;;;5074705;28;20036;-84
2022/04/08 09:06:43;;;;;;;8.15;1.02;;;15.00;83.80;;;;;;5074574;28;20528;-84
2022/04/08 09:09:11;;;;;;;2.92;0.95;;;14.90;83.80;;;;;;5074768;28;20044;-83
2022/04/08 09:11:37;;;;;;;6.10;1.35;;;14.70;83.90;;;;;;5077602;28;20383;-84
2022/04/08 09:14:05;;;;;;;3.83;0.90;;;14.50;84.40;;;;;;5074742;28;20024;-84
2022/04/08 09:16:37;;;;;;;5.30;1.23;;;14.30;84.70;;;;;;5074992;28;20020;-84
2022/04/08 09:19:10;;;;;;;7.90;1.95;;;14.20;84.50;;;;;;5074938;28;20418;-83
2022/04/08 09:21:36;;;;;;;4.95;1.30;;;14.20;85.80;;;;;;5074556;28;20095;-84
2022/04/08 09:24:06;;;;;;;10.60;1.83;;;14.00;85.90;;;;;;5074379;28;20071;-84
2022/04/08 09:26:36;;;;;;;9.05;1.65;;;14.10;86.20;;;;;;5074552;28;20396;-83
2022/04/08 09:29:03;;;;;;;11.35;2.30;;;14.20;86.30;;;;;;5074722;28;20390;-82
2022/04/08 09:31:30;;;;;;;7.57;2.00;;;14.20;86.70;;;;;;5099491;28;20047;-84
2022/04/08 09:33:55;;;;;;;13.23;2.53;;;14.20;85.60;;;;;;5094682;28;20023;-83
2022/04/08 09:36:32;;;;;;;15.73;2.67;;;14.20;86.50;;;;;;5110357;28;20521;-82
2022/04/08 09:38:58;;;;;;;14.35;2.55;;;14.10;86.50;;;;;;5074600;28;20035;-82
2022/04/08 09:41:43;;;;;;;14.07;2.80;;;14.20;86.70;;;;;;5091620;28;20125;-82
2022/04/08 09:44:11;;;;;;;13.15;2.85;;;14.20;86.50;;;;;;5093614;28;20043;-82
2022/04/08 09:46:38;;;;;;;11.80;1.95;;;14.20;86.20;;;;;;5091755;28;20641;-83
2022/04/08 09:49:04;;;;;;;14.73;2.92;;;14.30;85.80;;;;;;5098670;28;20083;-82
2022/04/08 09:51:39;;;;;;;12.40;2.50;;;14.30;84.60;;;;;;5097068;28;20043;-82
2022/04/08 09:54:06;;;;;;;13.57;2.72;;;14.40;84.40;;;;;;5096899;28;20043;-82
2022/04/08 09:56:34;;;;;;;16.42;2.97;;;14.30;84.60;;;;;;5080463;28;20158;-84
2022/04/08 09:59:06;;;;;;;12.18;2.20;;;14.30;84.90;;;;;;5095011;28;20055;-83
2022/04/08 10:01:33;;;;;;;13.80;2.80;;;14.20;84.10;;;;;;5091520;28;20021;-83
2022/04/08 10:04:01;;;;;;;16.08;3.33;;;14.00;84.20;;;;;;5093749;28;20024;-84
2022/04/08 10:06:28;;;;;;;11.90;2.50;;;13.90;84.50;;;;;;5093542;28;20070;-84
2022/04/08 10:08:54;;;;;;;11.77;2.67;;;13.90;85.50;;;;;;5093728;28;20067;-84
2022/04/08 10:11:33;;;;;;;15.40;3.20;;;13.90;84.10;;;;;;5097524;28;20031;-85
2022/04/08 10:14:17;;;;;;;18.85;3.20;;;13.80;83.90;;;;;;5093875;28;20057;-84
2022/04/08 10:16:43;;;;;;;15.63;2.80;;;14.00;84.80;;;;;;5092629;28;20063;-85
2022/04/08 10:19:11;;;;;;;17.65;3.58;;;14.30;84.90;;;;;;5077798;28;20059;-83
2022/04/08 10:21:40;;;;;;;14.68;2.92;;;14.30;84.20;;;;;;5085051;28;20028;-84
2022/04/08 10:24:10;;;;;;;19.98;3.33;;;14.50;83.70;;;;;;5093436;28;20024;-84
2022/04/08 10:26:57;;;;;;;15.93;2.60;;;14.50;82.80;;;;;;5097980;28;20034;-88
2022/04/08 10:29:23;;;;;;;14.48;2.83;;;14.70;82.80;;;;;;5089638;28;20056;-90
2022/04/08 10:32:04;;;;;;;15.45;3.00;;;14.70;82.50;;;;;;5114361;28;20028;-86
2022/04/08 10:34:35;;;;;;;16.92;3.78;;;15.00;81.50;;;;;;5114246;28;20024;-82
2022/04/08 10:37:12;;;;;;;14.82;3.15;;;15.60;81.90;;;;;;5100071;28;20048;-82
2022/04/08 10:39:38;;;;;;;13.18;3.05;;;16.00;78.60;;;;;;5077936;28;20031;-83
2022/04/08 10:42:06;;;;;;;15.77;2.90;;;16.20;77.30;;;;;;5082286;28;20028;-82
2022/04/08 10:44:33;;;;;;;12.00;2.78;;;16.30;76.30;;;;;;5077550;28;20024;-84
2022/04/08 10:47:24;;;;;;;22.00;5.32;;;16.50;75.90;;;;;;5091458;28;20028;-84
2022/04/08 10:49:51;;;;;;;17.80;3.67;;;16.80;76.00;;;;;;5085046;28;20115;-80
2022/04/08 10:52:24;;;;;;;17.25;4.15;;;17.00;75.20;;;;;;5077436;28;20494;-81
2022/04/08 10:54:52;;;;;;;18.27;3.22;;;17.20;75.50;;;;;;5077506;28;20104;-84
2022/04/08 10:57:37;;;;;;;21.67;3.88;;;17.30;74.80;;;;;;5092932;28;20033;-82
2022/04/08 11:00:06;;;;;;;16.90;3.13;;;17.40;73.40;;;;;;5108139;28;20048;-83
2022/04/08 11:02:39;;;;;;;12.57;2.83;;;17.20;72.50;;;;;;5096577;28;20028;-83
2022/04/08 11:05:08;;;;;;;16.50;2.67;;;17.00;72.00;;;;;;5096937;28;20016;-78
2022/04/08 11:07:34;;;;;;;13.43;3.25;;;17.00;72.10;;;;;;5097492;28;20024;-86
2022/04/08 11:10:02;;;;;;;15.57;3.28;;;17.10;71.20;;;;;;5086579;28;20040;-80
2022/04/08 11:12:30;;;;;;;19.00;3.45;;;17.10;71.30;;;;;;5092844;28;20031;-90
2022/04/08 11:14:58;;;;;;;13.48;2.30;;;17.10;70.50;;;;;;5098019;28;20086;-90
2022/04/08 11:17:33;;;;;;;16.17;2.95;;;17.10;71.40;;;;;;5096387;28;20466;-89
2022/04/08 11:19:59;;;;;;;14.38;2.70;;;17.20;71.70;;;;;;5099152;28;20511;-84
2022/04/08 11:22:25;;;;;;;15.95;3.20;;;17.10;70.10;;;;;;5096754;28;20027;-88
2022/04/08 11:24:56;;;;;;;15.13;2.90;;;17.30;70.10;;;;;;5092069;28;20028;-89
2022/04/08 11:27:22;;;;;;;21.52;3.42;;;17.20;70.40;;;;;;5093250;28;20111;-89
2022/04/08 11:29:47;;;;;;;15.20;3.00;;;17.30;70.60;;;;;;5092329;28;20059;-83
2022/04/08 11:32:13;;;;;;;6.72;2.17;;;17.20;67.50;;;;;;5076268;28;20036;-80
2022/04/08 11:34:39;;;;;;;12.65;2.17;;;17.10;69.70;;;;;;5076134;28;20066;-81
2022/04/08 11:37:05;;;;;;;13.43;3.00;;;16.80;67.90;;;;;;5076163;28;20028;-79
2022/04/08 11:39:31;;;;;;;6.97;1.77;;;16.90;69.80;;;;;;5076161;28;20031;-80
2022/04/08 11:41:58;;;;;;;13.27;2.33;;;16.80;68.90;;;;;;5086424;28;20364;-80
2022/04/08 11:44:25;;;;;;;10.73;2.10;;;16.80;69.30;;;;;;5095548;28;20012;-80
2022/04/08 11:46:51;;;;;;;12.55;2.50;;;16.80;68.60;;;;;;5095401;28;20454;-80
2022/04/08 11:49:18;;;;;;;10.63;2.08;;;16.80;68.80;;;;;;5093913;28;20027;-81
2022/04/08 11:51:45;;;;;;;5.57;1.20;;;16.80;68.00;;;;;;5093464;28;20088;-81
2022/04/08 11:54:11;;;;;;;8.80;1.25;;;16.40;69.90;;;;;;5092480;28;20041;-80
2022/04/08 11:56:37;;;;;;;7.78;1.35;;;16.30;72.00;;;;;;5095061;28;20020;-80
2022/04/08 11:59:11;;;;;;;6.47;1.42;;;16.40;73.40;;;;;;5094022;28;20440;-80
2022/04/08 12:01:38;;;;;;;5.18;1.38;;;16.50;72.20;;;;;;5073922;28;20021;-82
2022/04/08 12:04:08;;;;;;;8.48;2.10;;;16.40;72.80;;;;;;5072264;28;20735;-82
2022/04/08 12:06:42;;;;;;;7.70;2.60;;;16.40;74.60;;;;;;5073354;28;20052;-78
2022/04/08 12:09:12;;;;;;;9.82;2.00;;;16.30;75.10;;;;;;5073495;28;20032;-79
2022/04/08 12:11:42;;;;;;;;;;;16.40;74.60;;;;;;5085651;28;20028;-80
2022/04/08 12:14:10;;;;;;;11.07;1.55;;;16.50;75.70;;;;;;5095836;28;19908;-80
2022/04/08 12:16:39;;;;;;;7.13;1.48;;;16.30;75.40;;;;;;5094186;28;20444;-79
2022/04/08 12:19:08;;;;;;;6.85;1.35;;;16.00;75.90;;;;;;5095305;28;20524;-79
2022/04/08 12:21:34;;;;;;;7.53;1.60;;;15.90;76.20;;;;;;5079154;28;20040;-80
2022/04/08 12:24:02;;;;;;;11.35;2.05;;;16.00;76.20;;;;;;5075254;28;20135;-80
2022/04/08 12:26:35;;;;;;;7.53;2.35;;;16.50;76.00;;;;;;5080760;28;20024;-80
2022/04/08 12:29:06;;;;;;;5.13;1.52;;;16.90;74.70;;;;;;5075320;28;20060;-80
2022/04/08 12:31:31;;;;;;;5.03;1.30;;;17.20;73.70;;;;;;5075350;28;20036;-80
2022/04/08 12:33:57;;;;;;;7.93;1.77;;;17.00;72.20;;;;;;5074233;28;20036;-80
2022/04/08 12:36:23;;;;;;;8.25;1.20;;;17.20;73.30;;;;;;5075182;28;20044;-79
2022/04/08 12:38:48;;;;;;;4.45;0.95;;;17.10;73.10;;;;;;5075265;28;20024;-80
2022/04/08 12:41:14;;;;;;;4.90;1.10;;;17.20;71.30;;;;;;5074866;28;20035;-79
2022/04/08 12:43:40;;;;;;;6.43;1.52;;;17.00;72.70;;;;;;5075076;28;20032;-80
2022/04/08 12:46:06;;;;;;;3.28;1.13;;;16.90;72.90;;;;;;5075295;28;20082;-80
2022/04/08 12:48:32;;;;;;;5.05;1.42;;;16.80;72.70;;;;;;5075496;28;20032;-80
2022/04/08 12:50:58;;;;;;;3.65;0.95;;;16.60;74.40;;;;;;5075263;28;20517;-79